Bement, Illinois
Current Conditions -  °F | °C
As of 1:54 AM on Monday 26 Jan 2015 (Local Time) from KDEC Reporting Station
Overcast Overcast  
Wind Chill: 19°   Ceiling: 1400
Heat Index: 28°   Visibility: 10mi
Dew Point: 26°   Wind: 9mph
Humidity: 92%   Direction: 340°NNW
Pressure: 29.99"   Gusts: NA
Location:  39.92°N, 88.57°W
Report Text: KDEC 260754Z AUTO 34008KT 10SM OVC014 M02/M03 A2999 RMK AO2 SLP161 T10221033 TSNO
Loading
Personal Weather Stations






























Interactive Weather Map New forecast layout! Learn more

10-Day Weather Forecast

Advertisements
Track Severe Weather on mobile